Edgerton, Wisconsin
Current Conditions -  °F | °C
As of 5:45 PM on Saturday 25 Oct 2014 (Local Time) from KJVL Reporting Station
Clear Clear  
Wind Chill: 64°   Ceiling: Unl
Heat Index: 64°   Visibility: 10mi
Dew Point: 23°   Wind: 14mph
Humidity: 21%   Direction: 300°WNW
Pressure: 29.93"   Gusts: 21mph
Location:  42.84°N, 89.07°W
Report Text: KJVL 252245Z 30012G18KT 10SM SKC 18/M05 A2993
Loading
Personal Weather Stations






























Interactive Weather Map
Tropical Storm Tracking
New forecast layout! Learn more

10-Day Weather Forecast

Advertisements
Track Severe Weather on mobile